Time,TemperatureF,DewpointF,PressureIn,WindDirection,WindDirectionDegrees,WindSpeedMPH,WindSpeedGustMPH,Humidity,HourlyPrecipIn,Conditions,Clouds,dailyrainin,SoftwareType,DateUTC
2013-09-17 00:12:00,54.0,-99.9,-100.00,East,94,2.0,5.0,-999,0.00,,,0.00,,2013-09-17 05:12:00,
2013-09-17 00:23:00,54.0,-99.9,-100.00,East,94,2.0,5.0,-999,0.00,,,0.00,,2013-09-17 05:23:00,
2013-09-17 00:42:00,53.0,-99.9,-100.00,ESE,103,4.0,7.0,-999,0.00,,,0.00,,2013-09-17 05:42:00,
2013-09-17 00:52:00,53.0,-99.9,-100.00,ESE,103,4.0,7.0,-999,0.00,,,0.00,,2013-09-17 05:52:00,
2013-09-17 01:12:00,53.0,-99.9,-100.00,East,99,4.0,6.0,-999,0.00,,,0.00,,2013-09-17 06:12:00,
2013-09-17 01:22:00,53.0,-99.9,-100.00,East,99,4.0,6.0,-999,0.00,,,0.00,,2013-09-17 06:22:00,
2013-09-17 01:42:00,52.0,-99.9,-100.00,East,82,3.0,5.0,-999,0.00,,,0.00,,2013-09-17 06:42:00,
2013-09-17 01:52:00,52.0,-99.9,-100.00,East,82,3.0,5.0,-999,0.00,,,0.00,,2013-09-17 06:52:00,
2013-09-17 02:12:00,52.0,-99.9,-100.00,ESE,103,3.0,5.0,-999,0.00,,,0.00,,2013-09-17 07:12:00,
2013-09-17 02:24:00,52.0,-99.9,-100.00,ESE,103,3.0,5.0,-999,0.00,,,0.00,,2013-09-17 07:24:00,
2013-09-17 02:43:00,52.0,-99.9,-100.00,East,95,3.0,3.0,-999,0.00,,,0.00,,2013-09-17 07:43:00,
2013-09-17 02:52:00,52.0,-99.9,-100.00,East,95,3.0,3.0,-999,0.00,,,0.00,,2013-09-17 07:52:00,
2013-09-17 03:12:00,51.0,-99.9,-100.00,East,95,2.0,3.0,-999,0.00,,,0.00,,2013-09-17 08:12:00,
2013-09-17 03:22:00,51.0,-99.9,-100.00,East,95,2.0,3.0,-999,0.00,,,0.00,,2013-09-17 08:22:00,
2013-09-17 03:42:00,51.0,-99.9,-100.00,East,79,2.0,3.0,-999,0.00,,,0.00,,2013-09-17 08:42:00,
2013-09-17 03:52:00,51.0,-99.9,-100.00,East,79,2.0,3.0,-999,0.00,,,0.00,,2013-09-17 08:52:00,
2013-09-17 04:12:00,48.0,-99.9,-100.00,SW,226,2.0,3.0,-999,0.00,,,0.00,,2013-09-17 09:12:00,
2013-09-17 04:22:00,48.0,-99.9,-100.00,SW,226,2.0,3.0,-999,0.00,,,0.00,,2013-09-17 09:22:00,
2013-09-17 04:43:00,46.0,-99.9,-100.00,SW,234,3.0,4.0,-999,0.00,,,0.00,,2013-09-17 09:43:00,
2013-09-17 04:53:00,46.0,-99.9,-100.00,SW,234,3.0,4.0,-999,0.00,,,0.00,,2013-09-17 09:53:00,
2013-09-17 05:12:00,48.0,-99.9,-100.00,WSW,248,0.0,1.0,-999,0.00,,,0.00,,2013-09-17 10:12:00,
2013-09-17 05:23:00,48.0,-99.9,-100.00,WSW,248,0.0,1.0,-999,0.00,,,0.00,,2013-09-17 10:23:00,
2013-09-17 05:42:00,46.0,-99.9,-100.00,SW,217,1.0,2.0,-999,0.00,,,0.00,,2013-09-17 10:42:00,
2013-09-17 05:53:00,46.0,-99.9,-100.00,SW,217,1.0,2.0,-999,0.00,,,0.00,,2013-09-17 10:53:00,
2013-09-17 06:11:00,45.0,-99.9,-100.00,SW,236,3.0,4.0,-999,0.00,,,0.00,,2013-09-17 11:11:00,
2013-09-17 06:22:00,45.0,-99.9,-100.00,SW,236,3.0,4.0,-999,0.00,,,0.00,,2013-09-17 11:22:00,
2013-09-17 06:43:00,49.0,-99.9,-100.00,East,100,2.0,4.0,-999,0.00,,,0.00,,2013-09-17 11:43:00,
2013-09-17 06:52:00,49.0,-99.9,-100.00,East,100,2.0,4.0,-999,0.00,,,0.00,,2013-09-17 11:52:00,
2013-09-17 07:12:00,49.0,-99.9,-100.00,ENE,76,3.0,4.0,-999,0.00,,,0.00,,2013-09-17 12:12:00,
2013-09-17 07:22:00,49.0,-99.9,-100.00,ENE,76,3.0,4.0,-999,0.00,,,0.00,,2013-09-17 12:22:00,
2013-09-17 07:42:00,49.0,-99.9,-100.00,SE,135,1.0,2.0,-999,0.00,,,0.00,,2013-09-17 12:42:00,
2013-09-17 07:52:00,49.0,-99.9,-100.00,SE,135,1.0,2.0,-999,0.00,,,0.00,,2013-09-17 12:52:00,
2013-09-17 08:11:00,48.0,-99.9,-100.00,SSW,210,1.0,2.0,-999,0.00,,,0.00,,2013-09-17 13:11:00,
2013-09-17 08:22:00,48.0,-99.9,-100.00,SSW,210,1.0,2.0,-999,0.00,,,0.00,,2013-09-17 13:22:00,
2013-09-17 08:42:00,51.0,-99.9,-100.00,East,88,3.0,4.0,-999,0.00,,,0.00,,2013-09-17 13:42:00,
2013-09-17 08:52:00,51.0,-99.9,-100.00,East,88,3.0,4.0,-999,0.00,,,0.00,,2013-09-17 13:52:00,
2013-09-17 09:12:00,52.0,-99.9,-100.00,East,93,2.0,4.0,-999,0.00,,,0.00,,2013-09-17 14:12:00,
2013-09-17 09:22:00,52.0,-99.9,-100.00,East,93,2.0,4.0,-999,0.00,,,0.00,,2013-09-17 14:22:00,
2013-09-17 09:42:00,53.0,-99.9,-100.00,ESE,112,3.0,5.0,-999,0.00,,,0.00,,2013-09-17 14:42:00,
2013-09-17 09:52:00,53.0,-99.9,-100.00,ESE,112,3.0,5.0,-999,0.00,,,0.00,,2013-09-17 14:52:00,
2013-09-17 10:11:00,57.0,-99.9,-100.00,SE,135,4.0,7.0,-999,0.00,,,0.00,,2013-09-17 15:11:00,
2013-09-17 10:22:00,57.0,-99.9,-100.00,SE,135,4.0,7.0,-999,0.00,,,0.00,,2013-09-17 15:22:00,
2013-09-17 10:44:00,58.0,-99.9,-100.00,SE,141,5.0,11.0,-999,0.00,,,0.00,,2013-09-17 15:44:00,
2013-09-17 10:53:00,58.0,-99.9,-100.00,SE,141,5.0,11.0,-999,0.00,,,0.00,,2013-09-17 15:53:00,
2013-09-17 11:13:00,59.0,-99.9,-100.00,SE,139,5.0,8.0,-999,0.00,,,0.00,,2013-09-17 16:13:00,
2013-09-17 11:23:00,59.0,-99.9,-100.00,SE,139,5.0,8.0,-999,0.00,,,0.00,,2013-09-17 16:23:00,
2013-09-17 11:43:00,61.0,-99.9,-100.00,SE,137,5.0,9.0,-999,0.00,,,0.00,,2013-09-17 16:43:00,
2013-09-17 11:54:00,61.0,-99.9,-100.00,SE,137,5.0,9.0,-999,0.00,,,0.00,,2013-09-17 16:54:00,
2013-09-17 12:12:00,63.0,-99.9,-100.00,SSE,147,6.0,11.0,-999,0.00,,,0.00,,2013-09-17 17:12:00,
2013-09-17 12:24:00,63.0,-99.9,-100.00,SSE,147,6.0,11.0,-999,0.00,,,0.00,,2013-09-17 17:24:00,
2013-09-17 12:43:00,64.0,-99.9,-100.00,SE,146,6.0,11.0,-999,0.00,,,0.00,,2013-09-17 17:43:00,
2013-09-17 12:53:00,64.0,-99.9,-100.00,SE,146,6.0,11.0,-999,0.00,,,0.00,,2013-09-17 17:53:00,
2013-09-17 13:12:00,66.0,-99.9,-100.00,SSE,155,4.0,11.0,-999,0.00,,,0.00,,2013-09-17 18:12:00,
2013-09-17 13:22:00,66.0,-99.9,-100.00,SSE,155,4.0,11.0,-999,0.00,,,0.00,,2013-09-17 18:22:00,
2013-09-17 13:42:00,66.0,-99.9,-100.00,SE,137,3.0,5.0,-999,0.00,,,0.00,,2013-09-17 18:42:00,
2013-09-17 13:52:00,66.0,-99.9,-100.00,SE,137,3.0,5.0,-999,0.00,,,0.00,,2013-09-17 18:52:00,
2013-09-17 14:12:00,66.0,-99.9,-100.00,SSE,151,4.0,10.0,-999,0.00,,,0.00,,2013-09-17 19:12:00,
2013-09-17 14:22:00,66.0,-99.9,-100.00,SSE,151,4.0,10.0,-999,0.00,,,0.00,,2013-09-17 19:22:00,
2013-09-17 14:30:00,68.0,-99.9,-100.00,SE,145,4.0,9.0,-999,0.00,,,0.00,,2013-09-17 19:30:00,
2013-09-17 14:42:00,67.0,-99.9,-100.00,SE,133,2.0,6.0,-999,0.00,,,0.00,,2013-09-17 19:42:00,
2013-09-17 14:52:00,67.0,-99.9,-100.00,SE,133,2.0,6.0,-999,0.00,,,0.00,,2013-09-17 19:52:00,
2013-09-17 15:11:00,68.0,-99.9,-100.00,SE,145,4.0,9.0,-999,0.00,,,0.00,,2013-09-17 20:11:00,
2013-09-17 15:22:00,68.0,-99.9,-100.00,SE,145,4.0,9.0,-999,0.00,,,0.00,,2013-09-17 20:22:00,
2013-09-17 16:12:00,68.0,-99.9,-100.00,SSE,150,7.0,13.0,-999,0.00,,,0.00,,2013-09-17 21:12:00,
2013-09-17 16:22:00,68.0,-99.9,-100.00,SSE,150,7.0,13.0,-999,0.00,,,0.00,,2013-09-17 21:22:00,
2013-09-17 16:30:00,69.0,-99.9,-100.00,SE,143,4.0,7.0,-999,0.00,,,0.00,,2013-09-17 21:30:00,
2013-09-17 16:44:00,69.0,-99.9,-100.00,SSE,148,6.0,10.0,-999,0.00,,,0.00,,2013-09-17 21:44:00,
2013-09-17 16:54:00,69.0,-99.9,-100.00,SSE,148,6.0,10.0,-999,0.00,,,0.00,,2013-09-17 21:54:00,
2013-09-17 17:13:00,69.0,-99.9,-100.00,SE,143,4.0,7.0,-999,0.00,,,0.00,,2013-09-17 22:13:00,
2013-09-17 17:24:00,69.0,-99.9,-100.00,SE,143,4.0,7.0,-999,0.00,,,0.00,,2013-09-17 22:24:00,
2013-09-17 18:12:00,68.0,-99.9,-100.00,SSE,154,3.0,7.0,-999,0.00,,,0.00,,2013-09-17 23:12:00,
2013-09-17 18:22:00,68.0,-99.9,-100.00,SSE,154,3.0,7.0,-999,0.00,,,0.00,,2013-09-17 23:22:00,
2013-09-17 18:42:00,67.0,-99.9,-100.00,SE,141,5.0,8.0,-999,0.00,,,0.00,,2013-09-17 23:42:00,
2013-09-17 18:52:00,67.0,-99.9,-100.00,SE,141,5.0,8.0,-999,0.00,,,0.00,,2013-09-17 23:52:00,
2013-09-17 19:11:00,67.0,-99.9,-100.00,SSE,150,3.0,8.0,-999,0.00,,,0.00,,2013-09-18 00:11:00,
2013-09-17 19:22:00,67.0,-99.9,-100.00,SSE,150,3.0,8.0,-999,0.00,,,0.00,,2013-09-18 00:22:00,
2013-09-17 19:42:00,67.0,-99.9,-100.00,SSE,161,4.0,8.0,-999,0.00,,,0.00,,2013-09-18 00:42:00,
2013-09-17 19:52:00,67.0,-99.9,-100.00,SSE,161,4.0,8.0,-999,0.00,,,0.00,,2013-09-18 00:52:00,
2013-09-17 20:11:00,67.0,-99.9,-100.00,SSE,158,4.0,8.0,-999,0.00,,,0.00,,2013-09-18 01:11:00,
2013-09-17 20:22:00,67.0,-99.9,-100.00,SSE,158,4.0,8.0,-999,0.00,,,0.00,,2013-09-18 01:22:00,
2013-09-17 20:42:00,67.0,-99.9,-100.00,SSE,156,5.0,8.0,-999,0.00,,,0.00,,2013-09-18 01:42:00,
2013-09-17 20:53:00,67.0,-99.9,-100.00,SSE,156,5.0,8.0,-999,0.00,,,0.00,,2013-09-18 01:53:00,
2013-09-17 21:12:00,66.0,-99.9,-100.00,SSE,158,5.0,8.0,-999,0.00,,,0.00,,2013-09-18 02:12:00,
2013-09-17 21:22:00,66.0,-99.9,-100.00,SSE,158,5.0,8.0,-999,0.00,,,0.00,,2013-09-18 02:22:00,
2013-09-17 21:43:00,66.0,-99.9,-100.00,SSE,155,8.0,12.0,-999,0.00,,,0.00,,2013-09-18 02:43:00,
2013-09-17 21:52:00,66.0,-99.9,-100.00,SSE,155,8.0,12.0,-999,0.00,,,0.00,,2013-09-18 02:52:00,
2013-09-17 22:12:00,66.0,-99.9,-100.00,SSE,155,7.0,10.0,-999,0.00,,,0.00,,2013-09-18 03:12:00,
2013-09-17 22:23:00,66.0,-99.9,-100.00,SSE,155,7.0,10.0,-999,0.00,,,0.00,,2013-09-18 03:23:00,
2013-09-17 22:45:00,66.0,-99.9,-100.00,SSE,147,7.0,10.0,-999,0.00,,,0.00,,2013-09-18 03:45:00,
2013-09-17 22:55:00,66.0,-99.9,-100.00,SSE,147,7.0,10.0,-999,0.00,,,0.00,,2013-09-18 03:55:00,
2013-09-17 23:14:00,66.0,-99.9,-100.00,SSE,167,3.0,10.0,-999,0.00,,,0.00,,2013-09-18 04:14:00,
2013-09-17 23:24:00,66.0,-99.9,-100.00,SSE,167,3.0,10.0,-999,0.00,,,0.00,,2013-09-18 04:24:00,
2013-09-17 23:44:00,66.0,-99.9,-100.00,SE,146,5.0,9.0,-999,0.00,,,0.00,,2013-09-18 04:44:00,
2013-09-17 23:54:00,66.0,-99.9,-100.00,SE,146,5.0,9.0,-999,0.00,,,0.00,,2013-09-18 04:54:00,